Ora Direzione Vento Velocita' Vento Media Vento Raffica Max. Temperatura Wind Chill Pioggia Pressione
22:42:57.022 °(NNE)13.0 Kts17.9 Kts31.9 Kts4.5 °C-0.9 °C0.0 mm991.6 Hpa
22:22:16.022 °(NNE)17.5 Kts18.7 Kts31.9 Kts4.6 °C-0.8 °C0.0 mm991.5 Hpa
22:01:33.022 °(NNE)22.9 Kts20.8 Kts31.9 Kts4.8 °C-0.9 °C0.0 mm991.6 Hpa
21:40:51.022 °(NNE)17.9 Kts20.5 Kts31.9 Kts4.6 °C-1.1 °C0.0 mm991.6 Hpa
21:22:15.022 °(NNE)17.9 Kts17.9 Kts31.9 Kts4.7 °C-0.6 °C0.0 mm991.7 Hpa
21:01:30.022 °(NNE)16.3 Kts17.4 Kts31.9 Kts4.6 °C-0.6 °C0.0 mm991.6 Hpa
20:42:54.022 °(NNE)19.8 Kts17.1 Kts31.9 Kts4.6 °C-0.6 °C0.0 mm991.6 Hpa
20:22:13.022 °(NNE)17.3 Kts16.7 Kts31.9 Kts4.6 °C-0.5 °C0.0 mm991.5 Hpa
20:01:30.022 °(NNE)20.8 Kts18.7 Kts31.9 Kts4.6 °C-0.8 °C0.0 mm991.4 Hpa
19:42:54.022 °(NNE)22.3 Kts21.0 Kts31.9 Kts4.7 °C-1.0 °C0.0 mm991.4 Hpa
19:22:10.022 °(NNE)20.2 Kts18.2 Kts31.9 Kts4.6 °C-0.8 °C0.0 mm991.5 Hpa
19:01:32.022 °(NNE)16.9 Kts16.6 Kts31.9 Kts4.6 °C-0.5 °C0.0 mm991.5 Hpa
18:42:51.00 °(N)16.9 Kts16.8 Kts31.9 Kts4.6 °C-0.6 °C0.0 mm991.4 Hpa
18:15:56.022 °(NNE)15.9 Kts18.5 Kts31.9 Kts4.6 °C-0.8 °C0.0 mm991.5 Hpa
18:01:25.022 °(NNE)16.9 Kts17.9 Kts31.9 Kts4.6 °C-0.7 °C0.0 mm991.6 Hpa
17:42:48.00 °(N)20.4 Kts18.6 Kts31.9 Kts4.6 °C-0.8 °C0.0 mm991.7 Hpa
17:22:03.022 °(NNE)20.6 Kts18.4 Kts31.9 Kts4.7 °C-0.7 °C0.0 mm991.8 Hpa
17:01:16.022 °(NNE)18.1 Kts17.5 Kts31.9 Kts4.8 °C-0.4 °C0.0 mm991.8 Hpa
16:42:35.022 °(NNE)22.7 Kts16.9 Kts31.9 Kts4.6 °C-0.6 °C0.0 mm991.8 Hpa
16:21:42.022 °(NNE)14.4 Kts13.4 Kts31.9 Kts4.5 °C-0.1 °C0.0 mm992.0 Hpa